SBU weather

Springbok Airport
Springbok, Northern Cape, South Africa

Public forecast

Using degrees Celsius for public forecast. Weather courtesy of forecast.io.

METAR (pilot weather report)

Report is more than 6 hours old.

Retrieved 2019/05/20 14:49 UTC (13 hours ago):

FASB 201449Z 19010KT 9999 BKN015 09/07 Q1023

TAF (pilot weather forecast)

Forecast is more than 12 hours old.

Closest forecast is Alexander Bay Airport, 99.6 nm (184.4 km) NW. Retrieved 2017/07/06 00:54 UTC (2 years ago):

TAF FAAB 062130Z 0700/0806 27012KT 9999 BKN030 SCT080 BECMG 0702/0705 14010KT 8000 -RA/BR BKN030 BKN 080 BECMG0710/0713 9000 -RA BKN025 BKN070